logo
App data

RONIN

Ronin is stylish a turn-based action platformer following the exploits of a vengeful heroine determined to strike down five prominent figures of a powerful corporation.
Store | Hub | SteamDB | Site
Developer: Tomasz Wacławek Publisher: Devolver Digital
Genre: Action, Indie
Languages: English, Polish, Russian, French, Italian, German, Spanish - Spain, Portuguese - Brazil, Romanian
Tags: Indie (63), Action (52), Turn-Based (42), Stealth (41), Ninja (39), Platformer (38), 2D (35), Turn-Based Combat (32), Turn-Based Tactics (31), Female Protagonist (28), Singleplayer (22), Difficult (20), Cyberpunk (17), Great Soundtrack (7)
Category: Single-player, Steam Achievements, Full controller support
Release date: Jun 30, 2015 (previously in Early Access)
Price: $12.99
Score rank: 38% Userscore: 73% Old userscore: 68% Metascore: 70%
Owners: 100,000 .. 200,000
Followers: 8,294
Peak concurrent players yesterday: 3
YouTube stats: 27,311 views and 208 comments for videos uploaded last week, 7 new videos uploaded yesterday.
Playtime total: 03:53 (average) 01:44 (median)

Steam Spy is still in beta, so expect major bugs.

Owners data:

Access restricted.

This feature is only available to users with special access rights. Sorry.

If you want to proceed, you need to register or log in first and then back Steam Spy on Patreon. Look for Indie or Pro pledge.

Don't forget to use the same email as on Steam Spy!

Audience in 2 weeks:

Access restricted.

This feature is only available to users with special access rights. Sorry.

If you want to proceed, you need to register or log in first and then back Steam Spy on Patreon. Look for Indie or Pro pledge.

Don't forget to use the same email as on Steam Spy!

Peak daily concurrent players:

CCU data courtesy of SteamDB. Used with permission.

Hourly concurrent players:

Daily Twitch stats:

Hourly Twitch stats:

YouTube:

The views data is based on top 50 videos uploaded last week. Actual number of views might be more than the number shown.

The displayed number of videos uploaded yesterday is limited to 50, so if there were more videos uploaded, the number will still show 50.

If the game has commonly used word as its name (like "FEAR" or "Volume") its number of Youtube views might be wrong.

Games similar to this one:

# Game Release date
Price
Score rank
(Userscore / Metascore)
Owners
Players
Playtime (Median)
1 Chicken Invaders 4 Jun 6, 2014 $4.9997% (97%)0 .. 20,0000%00:00 (00:00)
2 Escape Goat Jun 14, 2012 $4.9997% (97%)20,000 .. 50,0000%00:00 (00:00)
3 I and Me May 4, 2016 $9.9995% (96%)0 .. 20,0000%00:00 (00:00)
4 Transcripted $7.99N/A (N/A/78%)0 .. 20,0000%00:00 (00:00)
5 Critter Crunch Sep 11, 2012 $6.9992% (95%)50,000 .. 100,0000%00:00 (00:00)
6 Velocibox Sep 8, 2014 $7.9990% (94%)50,000 .. 100,0000.51%00:01 (00:00)
7 Season of 12 Colors Mar 14, 2016 $2.9990% (94%)20,000 .. 50,0001.92%00:24 (00:08)
8 Super Puzzle Platformer Deluxe May 24, 2013 $7.9987% (93%)50,000 .. 100,0000.71%08:32 (02:50)
9 Inside My Radio May 11, 2015 $14.9987% (93%/68%)20,000 .. 50,0000%00:00 (00:00)
10 6180 the moon Sep 19, 2014 $3.9983% (92%)0 .. 20,0000%00:00 (00:00)
11 Titan Attacks! Feb 3, 2012 $9.9983% (92%)100,000 .. 200,0000%00:00 (00:00)
12 Unmechanical Aug 8, 2012 $9.9983% (92%/74%)50,000 .. 100,0000%00:00 (00:00)
13 Stray Cat Crossing Aug 28, 2015 $2.9979% (91%)20,000 .. 50,0000%00:00 (00:00)
14 Canabalt Apr 30, 2015 $2.9976% (90%)20,000 .. 50,0000%00:00 (00:00)
15 Ultratron Mar 18, 2013 $9.9976% (90%)50,000 .. 100,0000%00:00 (00:00)
16 Choice Chamber Jul 16, 2015 $9.9976% (90%)100,000 .. 200,0000.31%02:07 (00:42)
17 Ephemerid: A Musical Adventure Feb 3, 2015 $1.9976% (90%)0 .. 20,0000%00:00 (00:00)
18 Bermuda Mar 17, 2015 $2.99N/A (N/A)50,000 .. 100,0000%00:00 (00:00)
19 That Dragon, Cancer Jan 11, 2016 $9.9973% (89%/78%)20,000 .. 50,0000%00:00 (00:00)
20 Lumino City Dec 2, 2014 $14.9973% (89%/70%)200,000 .. 500,0000%00:00 (00:00)
21 Old Man's Journey May 17, 2017 $7.9970% (88%/76%)50,000 .. 100,0000.77%03:08 (04:39)
22 Lumini Sep 3, 2015 $12.9970% (88%/69%)0 .. 20,0003.57%00:05 (00:03)
23 Ballpoint Universe - Infinite Dec 17, 2013 $3.9967% (87%)100,000 .. 200,0000%00:00 (00:00)
24 Super Galaxy Squadron EX Turbo Mar 6, 2017 $9.9964% (86%)50,000 .. 100,0000.9%00:06 (00:04)
25 Spellsworn Mar 13, 2018 Free64% (86%)100,000 .. 200,0000.9%01:22 (00:48)
26 Chariot Nov 12, 2014 $14.9962% (85%/76%)50,000 .. 100,0000%00:00 (00:00)
27 Three Fourths Home: Extended Edition Mar 20, 2015 $4.99N/A (N/A/77%)20,000 .. 50,0000%00:00 (00:00)
28 Madballs in Babo:Invasion Sep 17, 2009 $4.9959% (84%/79%)50,000 .. 100,0000%00:00 (00:00)
29 Ben and Ed - Blood Party Feb 13, 2018 $14.9959% (84%)20,000 .. 50,0004.3%00:49 (00:57)
30 Road Not Taken Aug 5, 2014 $14.9956% (83%/75%)20,000 .. 50,0000%00:00 (00:00)
31 Instant Dungeon! Nov 25, 2014 $1.9956% (83%)0 .. 20,0000%00:00 (00:00)
32 Mega Coin Squad Aug 15, 2014 $14.9954% (82%/56%)0 .. 20,0000%00:00 (00:00)
33 Cherry Tree High I! My! Girls! Nov 20, 2014 $3.9954% (82%)50,000 .. 100,0000%00:00 (00:00)
34 The Sun and Moon Nov 14, 2014 $6.9954% (82%)20,000 .. 50,0000%00:00 (00:00)
35 The Novelist Dec 10, 2013 $9.9952% (81%/66%)100,000 .. 200,0000%00:00 (00:00)
36 Tobari and the Night of the Curious Moon May 26, 2015 $9.9952% (81%)0 .. 20,0000%00:00 (00:00)
37 OTTTD Aug 6, 2014 $7.9949% (80%)50,000 .. 100,0000%00:00 (00:00)
38 NEO AQUARIUM - The King of Crustaceans - Jun 8, 2015 $2.6949% (80%)20,000 .. 50,0000%00:00 (00:00)
39 Echo of the Wilds Jun 10, 2014 $8.9949% (80%)20,000 .. 50,0000%00:00 (00:00)
40 Boogeyman 2 Feb 7, 2017 $4.9947% (79%)0 .. 20,0000%00:00 (00:00)
41 Master Spy Sep 8, 2015 $9.9947% (79%/68%)50,000 .. 100,0000%00:00 (00:00)
42 It came from space, and ate our brains Mar 19, 2015 $9.9947% (79%)50,000 .. 100,0000%00:00 (00:00)
43 Combat Core Jan 10, 2019 $15.9945% (78%)0 .. 20,0000%00:00 (00:00)
44 Polyball Dec 1, 2017 $14.9945% (78%)0 .. 20,0000%00:00 (00:00)
45 Sugar Cube: Bittersweet Factory Nov 7, 2012 $6.9945% (78%)20,000 .. 50,0000%00:00 (00:00)
46 NaissanceE Feb 13, 2014 Free43% (77%/66%)100,000 .. 200,0000.26%09:03 (03:01)
47 Amphora Nov 12, 2014 $13.9943% (77%)0 .. 20,0005.88%00:14 (00:04)
48 Actual Sunlight Apr 3, 2014 $4.9943% (77%/77%)20,000 .. 50,0000%00:00 (00:00)
49 Monsters and Monocles Aug 16, 2016 $14.9941% (76%)0 .. 20,00016.67%00:03 (00:01)
50 Mini Thief Oct 12, 2018 $3.9941% (76%)20,000 .. 50,0000%00:00 (00:00)
51 Concursion Jun 6, 2014 $4.99N/A (N/A/66%)20,000 .. 50,0000%00:00 (00:00)
52 Dwarf Tower May 5, 2014 $0.9939% (75%)20,000 .. 50,0000%00:00 (00:00)
53 1979 Revolution: Black Friday Apr 4, 2016 $5.9939% (75%/80%)20,000 .. 50,0000%00:00 (00:00)
54 A Druid's Duel Feb 25, 2015 $7.9939% (75%/70%)0 .. 20,0000%00:00 (00:00)
55 The Wonderful End of the World Jan 25, 2008 $9.9939% (75%)100,000 .. 200,0000%00:00 (00:00)
56 Warring States Jan 29, 2018 $18.9937% (74%)0 .. 20,0000%00:00 (00:00)
57 Beyond Eyes Aug 11, 2015 $14.9937% (74%/60%)100,000 .. 200,0000.34%00:51 (00:17)
58 Disorder Jan 12, 2015 $3.9936% (73%/61%)0 .. 20,0000%00:00 (00:00)
59 Really Big Sky Feb 24, 2012 $4.9936% (73%)500,000 .. 1,000,0000%00:00 (00:00)
60 ReignMaker Apr 16, 2014 $14.99N/A (N/A)100,000 .. 200,0000.54%00:39 (00:26)
61 One More Line Aug 28, 2015 $2.9934% (72%)0 .. 20,0002.99%01:13 (00:35)
62 The Purge Day Nov 25, 2016 $2.99N/A (N/A)0 .. 20,0000%00:00 (00:00)
63 Super Treasure Arena Dec 24, 2018 $7.99N/A (N/A)0 .. 20,0000%00:00 (00:00)
64 Rhythm Destruction Jun 16, 2014 $4.99N/A (N/A)50,000 .. 100,0000%00:00 (00:00)
65 Cavern Kings Sep 30, 2014 $9.9927% (68%)0 .. 20,0000%00:00 (00:00)
66 Orbit HD Mar 18, 2015 $1.9923% (65%)20,000 .. 50,0001.92%02:41 (00:53)
67 Rush Bros. May 24, 2013 $9.9922% (64%)100,000 .. 200,0000.27%01:29 (00:29)
68 Grass Simulator Apr 1, 2015 $4.9922% (64%)20,000 .. 50,0000%00:00 (00:00)
69 Volt Apr 14, 2014 $0.9922% (64%)50,000 .. 100,0000%00:00 (00:00)
70 Three Dead Zed Jul 7, 2014 $5.99N/A (N/A)50,000 .. 100,0000.47%02:10 (00:43)
71 The Masterplan Jun 4, 2015 $19.9921% (63%/68%)50,000 .. 100,0000%00:00 (00:00)
72 Montague's Mount Nov 19, 2013 $4.9921% (63%/39%)20,000 .. 50,0000%00:00 (00:00)
73 Farlight Explorers Mar 11, 2015 $14.9920% (62%)0 .. 20,0000%00:00 (00:00)
74 Rabbit Hole 3D: Steam Edition Apr 25, 2014 $2.9920% (62%)50,000 .. 100,0000%00:00 (00:00)
75 Canyon Capers Apr 25, 2014 $6.99N/A (N/A)200,000 .. 500,0000.11%05:03 (01:41)
76 Party of Sin Dec 13, 2012 $5.99N/A (N/A)50,000 .. 100,0000%00:00 (00:00)
77 Pro Wrestling X Nov 18, 2014 $9.9916% (59%)0 .. 20,0000%00:00 (00:00)
78 Disillusions Manga Horror Apr 6, 2013 $0.9915% (58%)20,000 .. 50,0000%00:00 (00:00)
79 Evertown Jan 11, 2016 $2.999% (50%)0 .. 20,0000%00:00 (00:00)
80 Ukrainian Ninja Dec 23, 2014 Free9% (50%)0 .. 20,0000%00:00 (00:00)
81 Oblitus Feb 27, 2015 $14.999% (49%/69%)0 .. 20,0000%00:00 (00:00)
82 Star Horizon May 28, 2015 $4.999% (49%)20,000 .. 50,0000%00:00 (00:00)
83 Vernon's Legacy Sep 23, 2016 $11.999% (49%)0 .. 20,0000%00:00 (00:00)
84 Team Indie Oct 8, 2014 N/A8% (48%)50,000 .. 100,0000%00:00 (00:00)
85 //N.P.P.D. RUSH//- The milk of Ultraviolet Feb 13, 2014 $3.995% (40%)100,000 .. 200,0000%00:00 (00:00)
86 Bad Hotel Oct 16, 2013 $4.992% (30%)50,000 .. 100,0000.52%01:06 (00:22)
87 One Late Night: Deadline Dec 22, 2014 $7.992% (26%)0 .. 20,0000%00:00 (00:00)
88 One Day For Ched Sep 12, 2014 $3.99N/A (N/A)50,000 .. 100,0000.79%01:11 (00:23)

Tags over time:

Access restricted.

This feature is only available to users with special access rights. Sorry.

If you want to proceed, you need to register or log in first and then back Steam Spy on Patreon. Look for Indie or Pro pledge.

Don't forget to use the same email as on Steam Spy!

Owners of this game also own:

Access restricted.

This feature is only available to users with special access rights. Sorry.

If you want to proceed, you need to register or log in first and then back Steam Spy on Patreon. Look for Indie or Pro pledge.

Don't forget to use the same email as on Steam Spy!

Playtime distribution:

Access restricted.

This feature is only available to users with special access rights. Sorry.

If you want to proceed, you need to register or log in first and then back Steam Spy on Patreon. Look for Indie or Pro pledge.

Don't forget to use the same email as on Steam Spy!

Playtime (2 weeks):

Access restricted.

This feature is only available to users with special access rights. Sorry.

If you want to proceed, you need to register or log in first and then back Steam Spy on Patreon. Look for Indie or Pro pledge.

Don't forget to use the same email as on Steam Spy!

User reviews:

Login required.

Please register or log in to see this information.